createdAt,value
2019-01-31T00:01:24.628Z,15.43
2019-01-31T00:04:15.114Z,16.40
2019-01-31T00:07:02.381Z,16.43
2019-01-31T00:09:40.908Z,16.70
2019-01-31T00:12:16.108Z,15.07
2019-01-31T00:14:54.262Z,16.63
2019-01-31T00:17:29.751Z,16.10
2019-01-31T00:20:11.144Z,17.50
2019-01-31T00:23:00.258Z,17.57
2019-01-31T00:26:04.458Z,16.53
2019-01-31T00:28:39.507Z,17.73
2019-01-31T00:31:34.649Z,16.50
2019-01-31T00:34:32.488Z,16.80
2019-01-31T00:37:16.812Z,17.43
2019-01-31T00:39:54.791Z,17.33
2019-01-31T00:42:35.919Z,17.60
2019-01-31T00:45:22.550Z,17.63
2019-01-31T00:48:10.159Z,19.03
2019-01-31T00:50:42.602Z,19.73
2019-01-31T00:53:31.423Z,19.83
2019-01-31T00:56:12.486Z,19.13
2019-01-31T00:58:54.064Z,21.03
2019-01-31T01:01:26.516Z,21.77
2019-01-31T01:04:08.149Z,21.10
2019-01-31T01:06:55.835Z,23.87
2019-01-31T01:09:39.519Z,22.67
2019-01-31T01:12:31.213Z,22.83
2019-01-31T01:15:09.251Z,23.33
2019-01-31T01:17:41.639Z,24.53
2019-01-31T01:20:29.171Z,25.33
2019-01-31T01:23:04.506Z,25.13
2019-01-31T01:25:48.927Z,25.73
2019-01-31T01:28:36.259Z,27.37
2019-01-31T01:31:23.880Z,25.80
2019-01-31T01:34:04.776Z,26.83
2019-01-31T01:36:59.939Z,27.07
2019-01-31T01:39:35.205Z,27.10
2019-01-31T01:42:24.114Z,27.13
2019-01-31T01:45:03.161Z,26.80
2019-01-31T01:48:02.132Z,26.57
2019-01-31T01:50:37.500Z,27.00
2019-01-31T01:53:26.075Z,28.03
2019-01-31T01:56:13.715Z,27.37
2019-01-31T01:59:08.902Z,29.17
2019-01-31T02:01:43.935Z,26.43
2019-01-31T02:04:35.690Z,27.83
2019-01-31T02:07:22.711Z,27.77
2019-01-31T02:09:55.115Z,28.20
2019-01-31T02:12:35.974Z,28.50
2019-01-31T02:15:38.451Z,26.63
2019-01-31T02:18:10.861Z,26.30
2019-01-31T02:21:07.582Z,27.23
2019-01-31T02:23:46.030Z,26.70
2019-01-31T02:26:35.026Z,26.87
2019-01-31T02:29:13.136Z,26.77
2019-01-31T02:32:06.853Z,25.27
2019-01-31T02:34:54.350Z,25.33
2019-01-31T02:37:30.591Z,25.43
2019-01-31T02:40:08.705Z,24.90
2019-01-31T02:42:44.118Z,24.70
2019-01-31T02:45:50.019Z,25.43
2019-01-31T02:48:31.159Z,25.43
2019-01-31T02:51:15.274Z,25.23
2019-01-31T02:53:50.464Z,23.97
2019-01-31T02:56:25.890Z,24.23
2019-01-31T02:59:00.078Z,25.07
2019-01-31T03:01:38.437Z,25.83
2019-01-31T03:04:22.841Z,24.03
2019-01-31T03:07:17.813Z,25.07
2019-01-31T03:09:55.947Z,24.83
2019-01-31T03:12:37.181Z,26.20
2019-01-31T03:15:12.209Z,25.83
2019-01-31T03:17:50.523Z,25.03
2019-01-31T03:20:22.929Z,25.93
2019-01-31T03:22:55.306Z,25.60
2019-01-31T03:25:39.710Z,27.37
2019-01-31T03:28:20.923Z,28.13
2019-01-31T03:31:02.073Z,24.63
2019-01-31T03:33:43.329Z,26.23
2019-01-31T03:36:24.530Z,26.80
2019-01-31T03:39:03.833Z,27.50
2019-01-31T03:41:37.388Z,27.00
2019-01-31T03:44:21.891Z,28.20
2019-01-31T03:47:13.554Z,27.53
2019-01-31T03:50:06.772Z,28.00
2019-01-31T03:52:54.910Z,27.67
2019-01-31T03:55:47.819Z,28.47
2019-01-31T03:58:32.205Z,28.03
2019-01-31T04:01:30.383Z,28.63
2019-01-31T04:04:02.768Z,29.37
2019-01-31T04:06:32.081Z,28.23
2019-01-31T04:09:01.394Z,29.57
2019-01-31T04:11:32.325Z,28.33
2019-01-31T04:14:01.625Z,29.53
2019-01-31T04:16:32.005Z,29.37
2019-01-31T04:19:01.315Z,30.33
2019-01-31T04:21:30.615Z,29.67
2019-01-31T04:24:00.106Z,30.30
2019-01-31T04:26:29.415Z,30.70
2019-01-31T04:28:58.727Z,30.53
2019-01-31T04:31:28.070Z,29.20
2019-01-31T04:33:57.381Z,30.43
2019-01-31T04:36:26.712Z,30.77
2019-01-31T04:38:56.015Z,30.23
2019-01-31T04:41:25.322Z,29.50
2019-01-31T04:43:54.618Z,30.90
2019-01-31T04:46:23.954Z,31.13
2019-01-31T04:48:53.249Z,30.47
2019-01-31T04:51:22.562Z,31.60
2019-01-31T04:53:51.871Z,31.27
2019-01-31T04:56:21.170Z,30.77
2019-01-31T04:58:50.461Z,30.90
2019-01-31T05:01:19.784Z,31.00
2019-01-31T05:03:49.077Z,32.00
2019-01-31T05:06:18.369Z,30.60
2019-01-31T05:08:47.679Z,30.50
2019-01-31T05:11:17.006Z,29.23
2019-01-31T05:13:46.311Z,29.77
2019-01-31T05:16:16.617Z,30.93
2019-01-31T05:18:45.918Z,29.73
2019-01-31T05:21:15.214Z,30.47
2019-01-31T05:23:44.543Z,30.07
2019-01-31T05:26:13.909Z,30.97
2019-01-31T05:28:43.216Z,31.47
2019-01-31T05:31:12.536Z,30.43
2019-01-31T05:33:41.840Z,33.17
2019-01-31T05:36:11.136Z,31.20
2019-01-31T05:38:40.475Z,33.00
2019-01-31T05:41:09.810Z,33.40
2019-01-31T05:43:39.190Z,33.00
2019-01-31T05:46:08.498Z,33.10
2019-01-31T05:48:37.823Z,32.33
2019-01-31T05:51:07.119Z,33.47
2019-01-31T05:53:36.427Z,35.00
2019-01-31T05:56:05.813Z,31.80
2019-01-31T05:58:35.142Z,33.67
2019-01-31T06:01:04.630Z,36.10
2019-01-31T06:03:33.943Z,34.10
2019-01-31T06:06:03.250Z,33.57
2019-01-31T06:08:32.584Z,35.23
2019-01-31T06:11:07.626Z,34.53
2019-01-31T06:13:32.909Z,35.50
2019-01-31T06:16:02.197Z,34.57
2019-01-31T06:18:31.501Z,36.73
2019-01-31T06:21:00.823Z,36.47
2019-01-31T06:23:30.316Z,34.83
2019-01-31T06:25:59.604Z,34.70
2019-01-31T06:28:28.919Z,34.33
2019-01-31T06:30:58.229Z,35.20
2019-01-31T06:33:28.552Z,36.83
2019-01-31T06:35:58.050Z,38.67
2019-01-31T06:38:27.359Z,37.37
2019-01-31T06:40:56.663Z,37.93
2019-01-31T06:43:26.205Z,37.43
2019-01-31T06:45:56.358Z,35.43
2019-01-31T06:48:25.906Z,36.10
2019-01-31T06:50:55.234Z,35.73
2019-01-31T06:53:24.533Z,36.87
2019-01-31T06:55:53.857Z,40.57
2019-01-31T06:58:23.158Z,35.73
2019-01-31T07:00:52.468Z,38.57
2019-01-31T07:03:21.776Z,39.40
2019-01-31T07:05:51.089Z,38.67
2019-01-31T07:08:20.411Z,41.23
2019-01-31T07:10:49.805Z,40.63
2019-01-31T07:13:19.113Z,42.83
2019-01-31T07:15:48.455Z,40.53
2019-01-31T07:18:17.772Z,41.30
2019-01-31T07:20:47.086Z,39.93
2019-01-31T07:23:16.420Z,39.90
2019-01-31T07:25:45.722Z,39.67
2019-01-31T07:28:19.577Z,38.67
2019-01-31T07:30:48.887Z,37.77
2019-01-31T07:33:18.181Z,36.10
2019-01-31T07:35:47.486Z,37.00
2019-01-31T07:38:16.797Z,36.20
2019-01-31T07:40:46.106Z,36.27
2019-01-31T07:43:15.415Z,35.37
2019-01-31T07:45:44.745Z,36.33
2019-01-31T07:48:14.060Z,34.73
2019-01-31T07:50:43.389Z,35.40
2019-01-31T07:53:12.965Z,33.40
2019-01-31T07:55:42.400Z,34.20
2019-01-31T07:58:11.689Z,33.03
2019-01-31T08:00:41.021Z,32.90
2019-01-31T08:03:10.314Z,34.37
2019-01-31T08:05:39.713Z,31.67
2019-01-31T08:08:09.011Z,32.33
2019-01-31T08:10:40.461Z,30.87
2019-01-31T08:13:10.230Z,33.70
2019-01-31T08:15:39.540Z,33.00
2019-01-31T08:18:11.007Z,31.87
2019-01-31T08:20:39.880Z,32.33
2019-01-31T08:23:09.186Z,32.00
2019-01-31T08:25:38.514Z,31.97
2019-01-31T08:28:08.000Z,31.73
2019-01-31T08:30:40.299Z,31.80
2019-01-31T08:33:09.605Z,30.77
2019-01-31T08:35:38.906Z,31.70
2019-01-31T08:38:08.193Z,34.03
2019-01-31T08:40:37.506Z,30.83
2019-01-31T08:43:06.798Z,31.90
2019-01-31T08:45:37.074Z,35.10
2019-01-31T08:48:06.390Z,31.70
2019-01-31T08:50:35.863Z,31.73
2019-01-31T08:53:05.262Z,28.63
2019-01-31T08:55:34.684Z,29.00
2019-01-31T08:58:04.383Z,29.03
2019-01-31T09:00:33.687Z,29.87
2019-01-31T09:03:02.991Z,28.07
2019-01-31T09:05:32.302Z,29.47
2019-01-31T09:08:01.602Z,28.60
2019-01-31T09:10:37.364Z,28.13
2019-01-31T09:13:08.313Z,28.53
2019-01-31T09:15:37.612Z,28.50
2019-01-31T09:18:07.470Z,27.60
2019-01-31T09:20:42.933Z,27.57
2019-01-31T09:23:30.211Z,28.40
2019-01-31T09:26:11.327Z,27.27
2019-01-31T09:29:06.094Z,28.57
2019-01-31T09:31:51.309Z,26.30
2019-01-31T09:34:44.814Z,25.00
2019-01-31T09:37:52.150Z,25.73
2019-01-31T09:40:30.573Z,25.70
2019-01-31T09:43:14.691Z,25.07
2019-01-31T09:45:55.896Z,24.13
2019-01-31T09:48:31.087Z,24.93
2019-01-31T09:51:08.983Z,24.83
2019-01-31T09:54:03.987Z,24.10
2019-01-31T09:56:45.462Z,24.37
2019-01-31T09:59:26.593Z,25.27
2019-01-31T10:02:32.503Z,22.13
2019-01-31T10:05:13.994Z,22.87
2019-01-31T10:07:49.211Z,23.93
2019-01-31T10:10:24.184Z,23.93
2019-01-31T10:13:13.253Z,25.13
2019-01-31T10:15:53.958Z,22.97
2019-01-31T10:18:42.841Z,23.67
2019-01-31T10:21:40.830Z,22.57
2019-01-31T10:24:34.146Z,22.37
2019-01-31T10:27:12.356Z,21.50
2019-01-31T10:29:48.601Z,21.83
2019-01-31T10:32:29.890Z,21.53
2019-01-31T10:35:04.934Z,19.90
2019-01-31T10:37:44.738Z,20.73
2019-01-31T10:40:41.226Z,20.07
2019-01-31T10:43:22.555Z,21.33
2019-01-31T10:46:12.555Z,19.53
2019-01-31T10:48:53.577Z,20.53
2019-01-31T10:51:46.890Z,20.87
2019-01-31T10:54:31.267Z,20.63
2019-01-31T10:57:18.545Z,21.13
2019-01-31T10:59:56.955Z,19.77
2019-01-31T11:02:47.932Z,21.80
2019-01-31T11:05:50.696Z,22.90
2019-01-31T11:08:37.426Z,21.67
2019-01-31T11:11:24.119Z,22.37
2019-01-31T11:13:56.509Z,22.97
2019-01-31T11:16:34.997Z,23.97
2019-01-31T11:19:16.234Z,23.83
2019-01-31T11:22:05.137Z,24.33
2019-01-31T11:24:49.176Z,22.37
2019-01-31T11:27:30.462Z,22.20
2019-01-31T11:30:08.753Z,23.77
2019-01-31T11:32:41.123Z,22.80
2019-01-31T11:35:38.990Z,24.40
2019-01-31T11:38:26.248Z,23.97
2019-01-31T11:41:22.222Z,22.23
2019-01-31T11:44:12.377Z,18.67
2019-01-31T11:46:47.477Z,17.00
2019-01-31T11:49:19.898Z,17.67
2019-01-31T11:52:23.970Z,16.97
2019-01-31T11:55:08.345Z,16.57
2019-01-31T11:58:00.300Z,16.27
2019-01-31T12:00:29.601Z,16.63
2019-01-31T12:02:58.994Z,18.00
2019-01-31T12:05:28.337Z,17.93
2019-01-31T12:07:57.635Z,18.83
2019-01-31T12:10:26.951Z,18.70
2019-01-31T12:12:56.330Z,17.80
2019-01-31T12:15:25.820Z,17.97
2019-01-31T12:17:55.277Z,18.63
2019-01-31T12:20:24.590Z,19.10
2019-01-31T12:22:53.883Z,19.33
2019-01-31T12:25:23.821Z,18.97
2019-01-31T12:27:53.115Z,19.00
2019-01-31T12:30:25.587Z,19.03
2019-01-31T12:32:55.014Z,18.50
2019-01-31T12:35:24.327Z,18.83
2019-01-31T12:37:53.623Z,18.47
2019-01-31T12:40:22.940Z,20.07
2019-01-31T12:42:52.270Z,19.43
2019-01-31T12:45:21.648Z,18.67
2019-01-31T12:47:50.959Z,18.93
2019-01-31T12:50:22.804Z,19.23
2019-01-31T12:52:52.255Z,19.07
2019-01-31T12:55:21.581Z,19.00
2019-01-31T12:57:51.433Z,19.03
2019-01-31T13:00:24.362Z,17.27
2019-01-31T13:02:53.821Z,17.17
2019-01-31T13:05:23.368Z,18.03
2019-01-31T13:07:52.653Z,19.87
2019-01-31T13:10:23.449Z,18.90
2019-01-31T13:12:52.987Z,18.50
2019-01-31T13:15:22.327Z,18.77
2019-01-31T13:17:53.890Z,19.43
2019-01-31T13:20:24.087Z,19.30
2019-01-31T13:22:55.027Z,20.10
2019-01-31T13:25:25.782Z,19.20
2019-01-31T13:27:55.089Z,19.20
2019-01-31T13:30:24.762Z,18.77
2019-01-31T13:32:55.967Z,19.07
2019-01-31T13:35:25.425Z,19.97
2019-01-31T13:37:54.829Z,20.43
2019-01-31T13:40:25.979Z,18.87
2019-01-31T13:42:55.735Z,21.03
2019-01-31T13:45:31.065Z,19.77
2019-01-31T13:48:02.206Z,19.23
2019-01-31T13:50:31.582Z,19.63
2019-01-31T13:53:00.970Z,19.33
2019-01-31T13:55:33.224Z,18.53
2019-01-31T13:58:02.715Z,18.63
2019-01-31T14:00:32.034Z,18.97
2019-01-31T14:03:01.429Z,18.97
2019-01-31T14:05:31.694Z,17.50
2019-01-31T14:08:01.233Z,17.87
2019-01-31T14:10:30.526Z,18.13
2019-01-31T14:12:59.834Z,18.13
2019-01-31T14:15:33.973Z,18.63
2019-01-31T14:18:02.733Z,17.10
2019-01-31T14:20:32.371Z,17.10
2019-01-31T14:23:01.671Z,15.73
2019-01-31T14:25:31.045Z,16.80
2019-01-31T14:28:00.353Z,15.73
2019-01-31T14:30:37.611Z,17.47
2019-01-31T14:33:09.393Z,16.90
2019-01-31T14:35:38.864Z,15.47
2019-01-31T14:38:08.166Z,15.57
2019-01-31T14:40:37.460Z,16.60
2019-01-31T14:43:06.788Z,15.77
2019-01-31T14:45:36.089Z,16.30
2019-01-31T14:48:05.826Z,17.40
2019-01-31T14:50:36.081Z,16.40
2019-01-31T14:53:05.938Z,16.07
2019-01-31T14:55:35.230Z,33.83
2019-01-31T14:58:06.783Z,30.77
2019-01-31T15:00:36.081Z,28.77
2019-01-31T15:03:05.731Z,17.23
2019-01-31T15:05:36.845Z,17.67
2019-01-31T15:08:06.778Z,24.10
2019-01-31T15:10:36.087Z,24.80
2019-01-31T15:13:05.623Z,31.20
2019-01-31T15:15:34.958Z,26.03
2019-01-31T15:18:06.268Z,28.13
2019-01-31T15:20:38.756Z,17.60
2019-01-31T15:23:08.154Z,24.23
2019-01-31T15:25:37.451Z,15.93
2019-01-31T15:28:07.003Z,14.67
2019-01-31T15:30:37.144Z,17.00
2019-01-31T15:33:11.750Z,16.60
2019-01-31T15:35:41.317Z,17.43
2019-01-31T15:38:10.838Z,17.03
2019-01-31T15:40:42.976Z,17.13
2019-01-31T15:43:12.446Z,16.63
2019-01-31T15:45:41.891Z,17.37
2019-01-31T15:48:11.262Z,18.47
2019-01-31T15:50:40.571Z,18.83
2019-01-31T15:53:09.920Z,18.97
2019-01-31T15:55:39.392Z,17.67
2019-01-31T15:58:08.795Z,18.30
2019-01-31T16:00:46.918Z,19.63
2019-01-31T16:03:17.871Z,19.73
2019-01-31T16:05:47.536Z,19.10
2019-01-31T16:08:17.226Z,18.23
2019-01-31T16:10:46.634Z,18.27
2019-01-31T16:13:16.035Z,17.53
2019-01-31T16:15:45.425Z,18.63
2019-01-31T16:18:14.820Z,19.73
2019-01-31T16:20:44.115Z,21.13
2019-01-31T16:23:14.464Z,20.17
2019-01-31T16:25:47.687Z,21.70
2019-01-31T16:28:16.479Z,22.87
2019-01-31T16:30:45.822Z,20.40
2019-01-31T16:33:15.176Z,19.67
2019-01-31T16:35:44.482Z,19.70
2019-01-31T16:38:13.812Z,20.47
2019-01-31T16:40:43.172Z,21.03
2019-01-31T16:43:12.575Z,19.67
2019-01-31T16:45:41.882Z,21.03
2019-01-31T16:48:11.214Z,19.00
2019-01-31T16:50:40.517Z,19.67
2019-01-31T16:53:10.022Z,19.13
2019-01-31T16:55:39.338Z,17.83
2019-01-31T16:58:08.822Z,18.20
2019-01-31T17:00:38.121Z,17.97
2019-01-31T17:03:07.614Z,16.10
2019-01-31T17:05:37.088Z,17.03
2019-01-31T17:08:06.678Z,16.47
2019-01-31T17:10:35.993Z,14.80
2019-01-31T17:13:05.694Z,15.17
2019-01-31T17:15:35.487Z,14.30
2019-01-31T17:18:05.717Z,14.13
2019-01-31T17:20:40.050Z,14.10
2019-01-31T17:23:09.354Z,12.23
2019-01-31T17:25:38.681Z,13.13
2019-01-31T17:28:07.988Z,13.90
2019-01-31T17:30:37.319Z,14.07
2019-01-31T17:33:06.807Z,17.03
2019-01-31T17:35:36.135Z,15.93
2019-01-31T17:38:05.682Z,14.17
2019-01-31T17:40:37.144Z,13.20
2019-01-31T17:43:07.946Z,14.10
2019-01-31T17:45:37.261Z,16.40
2019-01-31T17:48:07.421Z,13.53
2019-01-31T17:50:36.745Z,12.47
2019-01-31T17:53:07.131Z,13.60
2019-01-31T17:55:36.462Z,12.00
2019-01-31T17:58:05.836Z,12.07
2019-01-31T18:00:39.419Z,11.43
2019-01-31T18:03:08.745Z,10.53
2019-01-31T18:05:38.078Z,11.00
2019-01-31T18:08:09.297Z,11.00
2019-01-31T18:10:39.686Z,12.90
2019-01-31T18:13:08.982Z,10.67
2019-01-31T18:15:42.312Z,10.37
2019-01-31T18:18:09.295Z,10.83
2019-01-31T18:20:38.631Z,10.20
2019-01-31T18:23:07.953Z,10.43
2019-01-31T18:25:37.262Z,11.03
2019-01-31T18:28:06.600Z,9.90
2019-01-31T18:30:38.002Z,10.27
2019-01-31T18:33:07.292Z,9.47
2019-01-31T18:35:36.590Z,9.43
2019-01-31T18:38:05.954Z,9.03
2019-01-31T18:40:36.008Z,9.43
2019-01-31T18:43:05.738Z,9.17
2019-01-31T18:45:36.135Z,10.33
2019-01-31T18:48:06.576Z,10.93
2019-01-31T18:50:41.138Z,12.17
2019-01-31T18:53:10.505Z,11.60
2019-01-31T18:55:40.186Z,12.07
2019-01-31T18:58:09.506Z,11.50
2019-01-31T19:00:41.395Z,11.87
2019-01-31T19:03:10.926Z,11.80
2019-01-31T19:05:40.237Z,11.17
2019-01-31T19:08:09.536Z,12.77
2019-01-31T19:10:43.532Z,11.03
2019-01-31T19:13:09.874Z,10.70
2019-01-31T19:15:39.187Z,10.50
2019-01-31T19:18:08.678Z,10.17
2019-01-31T19:20:38.303Z,10.07
2019-01-31T19:23:08.076Z,11.63
2019-01-31T19:25:38.437Z,11.70
2019-01-31T19:28:08.093Z,12.00
2019-01-31T19:30:39.232Z,10.27
2019-01-31T19:33:09.162Z,12.03
2019-01-31T19:35:38.718Z,11.50
2019-01-31T19:38:09.683Z,10.13
2019-01-31T19:40:41.339Z,11.83
2019-01-31T19:43:10.694Z,12.17
2019-01-31T19:45:45.349Z,10.77
2019-01-31T19:48:14.924Z,11.27
2019-01-31T19:50:44.389Z,11.70
2019-01-31T19:53:13.754Z,12.13
2019-01-31T19:55:43.240Z,13.47
2019-01-31T19:58:12.551Z,12.63
2019-01-31T20:00:41.869Z,12.30
2019-01-31T20:03:11.275Z,12.50
2019-01-31T20:05:40.733Z,12.60
2019-01-31T20:08:10.228Z,13.27
2019-01-31T20:10:40.466Z,12.67
2019-01-31T20:13:09.807Z,13.77
2019-01-31T20:15:39.299Z,13.47
2019-01-31T20:18:08.886Z,14.30
2019-01-31T20:20:38.184Z,12.90
2019-01-31T20:23:07.725Z,14.73
2019-01-31T20:25:37.217Z,13.03
2019-01-31T20:28:06.877Z,14.37
2019-01-31T20:30:36.451Z,13.87
2019-01-31T20:33:06.604Z,13.67
2019-01-31T20:35:36.007Z,12.70
2019-01-31T20:38:05.512Z,13.57
2019-01-31T20:40:38.054Z,14.03
2019-01-31T20:43:07.875Z,13.77
2019-01-31T20:45:37.334Z,14.37
2019-01-31T20:48:07.411Z,13.90
2019-01-31T20:50:38.272Z,13.43
2019-01-31T20:53:07.939Z,13.93
2019-01-31T20:55:37.241Z,14.40
2019-01-31T20:58:06.834Z,13.93
2019-01-31T21:00:39.240Z,13.73
2019-01-31T21:03:09.309Z,14.10
2019-01-31T21:05:39.272Z,13.77
2019-01-31T21:08:09.735Z,13.97
2019-01-31T21:10:39.052Z,13.80
2019-01-31T21:13:08.614Z,13.40
2019-01-31T21:15:38.022Z,13.03
2019-01-31T21:18:08.232Z,12.63
2019-01-31T21:20:37.754Z,15.07
2019-01-31T21:23:07.877Z,15.73
2019-01-31T21:25:37.197Z,16.10
2019-01-31T21:28:06.859Z,17.87
2019-01-31T21:30:38.287Z,16.50
2019-01-31T21:33:07.745Z,16.87
2019-01-31T21:35:37.675Z,16.80
2019-01-31T21:38:06.991Z,16.10
2019-01-31T21:40:37.269Z,15.07
2019-01-31T21:43:06.676Z,15.13
2019-01-31T21:45:36.426Z,15.40
2019-01-31T21:48:06.439Z,15.10
2019-01-31T21:50:35.810Z,14.27
2019-01-31T21:53:05.678Z,16.00
2019-01-31T21:55:35.073Z,15.90
2019-01-31T21:58:05.848Z,14.53
2019-01-31T22:00:36.119Z,15.47
2019-01-31T22:03:06.358Z,15.47
2019-01-31T22:05:35.678Z,14.20
2019-01-31T22:08:05.744Z,15.63
2019-01-31T22:10:35.093Z,14.47
2019-01-31T22:13:04.767Z,15.27
2019-01-31T22:15:35.825Z,14.87
2019-01-31T22:18:05.719Z,15.53
2019-01-31T22:20:35.108Z,13.83
2019-01-31T22:23:04.766Z,14.60
2019-01-31T22:25:34.199Z,14.37
2019-01-31T22:28:04.430Z,15.20
2019-01-31T22:30:35.797Z,14.53
2019-01-31T22:33:05.958Z,14.50
2019-01-31T22:35:35.297Z,14.70
2019-01-31T22:38:04.999Z,14.80
2019-01-31T22:40:34.382Z,14.47
2019-01-31T22:43:03.772Z,14.97
2019-01-31T22:45:33.083Z,15.50
2019-01-31T22:48:02.396Z,14.60
2019-01-31T22:50:31.709Z,14.63
2019-01-31T22:53:01.281Z,15.57
2019-01-31T22:55:30.622Z,14.63
2019-01-31T22:57:59.922Z,14.70
2019-01-31T23:00:45.657Z,15.87
2019-01-31T23:03:15.800Z,14.67
2019-01-31T23:05:45.174Z,14.30
2019-01-31T23:08:14.490Z,14.53
2019-01-31T23:10:43.823Z,15.70
2019-01-31T23:13:13.121Z,15.23
2019-01-31T23:15:42.467Z,16.03
2019-01-31T23:18:11.766Z,15.63
2019-01-31T23:20:44.193Z,16.33
2019-01-31T23:23:12.262Z,15.60
2019-01-31T23:25:41.590Z,16.40
2019-01-31T23:28:10.906Z,15.80
2019-01-31T23:30:40.390Z,15.53
2019-01-31T23:33:09.698Z,16.30
2019-01-31T23:35:39.015Z,16.83
2019-01-31T23:38:08.499Z,15.17
2019-01-31T23:40:37.846Z,16.17
2019-01-31T23:43:07.310Z,16.10
2019-01-31T23:45:36.655Z,16.70
2019-01-31T23:48:06.294Z,16.60
2019-01-31T23:50:35.642Z,15.85
2019-01-31T23:53:05.592Z,16.57
2019-01-31T23:55:34.918Z,16.10
2019-01-31T23:58:04.519Z,15.77
